Hite, Kentucky
Current Conditions -  °F | °C
As of 6:15 AM on Friday 24 Oct 2014 (Local Time) from KPBX Reporting Station
Moderate Fog Moderate Fog  
Wind Chill: 39°   Ceiling: 200
Heat Index: 39°   Visibility: 0mi
Dew Point: 39°   Wind: 3mph
Humidity: 99%   Direction: 200°SSW
Pressure: 30.11"   Gusts: NA
Location:  37.5458°N, 82.7593°W
Report Text: KPBX 241015Z AUTO 20003KT M1/4SM FG OVC002 04/04 A3011 RMK AO2 T00400038
Loading
Personal Weather Stations






























Interactive Weather Map
Tropical Storm Tracking
New forecast layout! Learn more

10-Day Weather Forecast

Advertisements
Track Severe Weather on mobile